createdAt,value
2022-10-11T00:00:39.343Z,10.20
2022-10-11T00:05:50.509Z,13.33
2022-10-11T00:08:17.175Z,9.23
2022-10-11T00:10:43.910Z,9.63
2022-10-11T00:13:10.675Z,9.83
2022-10-11T00:15:39.039Z,9.60
2022-10-11T00:18:05.688Z,12.30
2022-10-11T00:20:32.387Z,11.83
2022-10-11T00:22:59.025Z,13.33
2022-10-11T00:25:25.714Z,15.00
2022-10-11T00:27:52.327Z,10.20
2022-10-11T00:33:03.553Z,11.87
2022-10-11T00:38:14.924Z,10.47
2022-10-11T00:40:41.559Z,12.33
2022-10-11T00:43:17.846Z,12.00
2022-10-11T00:48:41.996Z,8.80
2022-10-11T00:51:28.970Z,12.87
2022-10-11T00:53:55.637Z,11.03
2022-10-11T00:56:26.584Z,10.80
2022-10-11T00:58:53.465Z,11.90
2022-10-11T01:01:20.144Z,12.53
2022-10-11T01:03:46.855Z,16.27
2022-10-11T01:06:13.669Z,11.67
2022-10-11T01:08:40.434Z,12.37
2022-10-11T01:11:07.086Z,12.20
2022-10-11T01:13:36.821Z,14.83
2022-10-11T01:16:10.747Z,12.17
2022-10-11T01:19:09.971Z,12.50
2022-10-11T01:21:36.957Z,14.20
2022-10-11T01:27:06.694Z,18.13
2022-10-11T01:29:49.491Z,12.33
2022-10-11T01:32:19.964Z,14.07
2022-10-11T01:34:46.652Z,13.77
2022-10-11T01:40:18.016Z,14.50
2022-10-11T01:42:44.739Z,14.97
2022-10-11T01:45:14.006Z,14.77
2022-10-11T01:47:42.497Z,15.73
2022-10-11T01:50:29.379Z,14.57
2022-10-11T01:52:56.123Z,17.60
2022-10-11T01:55:28.780Z,14.50
2022-10-11T02:00:51.960Z,14.73
2022-10-11T02:03:18.775Z,17.50
2022-10-11T02:05:57.665Z,13.47
2022-10-11T02:08:39.380Z,16.77
2022-10-11T02:11:16.821Z,15.13
2022-10-11T02:13:48.204Z,15.13
2022-10-11T02:16:15.634Z,14.53
2022-10-11T02:18:43.047Z,16.27
2022-10-11T02:24:00.147Z,16.43
2022-10-11T02:26:28.426Z,17.13
2022-10-11T02:28:55.563Z,13.20
2022-10-11T02:31:22.285Z,18.13
2022-10-11T02:33:52.173Z,16.07
2022-10-11T02:36:26.142Z,14.47
2022-10-11T02:38:56.747Z,17.00
2022-10-11T02:41:25.299Z,17.57
2022-10-11T02:43:53.329Z,16.17
2022-10-11T02:46:20.094Z,15.97
2022-10-11T02:48:46.708Z,13.77
2022-10-11T02:51:13.658Z,17.87
2022-10-11T02:53:40.376Z,17.17
2022-10-11T02:56:07.502Z,16.43
2022-10-11T02:58:34.398Z,14.07
2022-10-11T03:01:01.088Z,15.43
2022-10-11T03:03:27.715Z,15.10
2022-10-11T03:05:58.218Z,18.10
2022-10-11T03:08:25.119Z,16.73
2022-10-11T03:10:51.940Z,15.07
2022-10-11T03:13:18.697Z,17.23
2022-10-11T03:16:02.257Z,15.90
2022-10-11T03:18:30.764Z,13.93
2022-10-11T03:20:57.424Z,17.03
2022-10-11T03:23:24.320Z,16.73
2022-10-11T03:25:52.246Z,12.47
2022-10-11T03:31:04.333Z,10.27
2022-10-11T03:33:31.321Z,12.20
2022-10-11T03:35:58.043Z,14.70
2022-10-11T03:38:24.817Z,10.83
2022-10-11T03:40:51.879Z,12.00
2022-10-11T03:43:18.624Z,8.80
2022-10-11T03:45:46.910Z,13.97
2022-10-11T03:48:13.747Z,10.40
2022-10-11T03:50:40.554Z,9.40
2022-10-11T03:53:07.496Z,7.70
2022-10-11T03:55:34.401Z,9.23
2022-10-11T03:58:01.035Z,7.60
2022-10-11T04:00:28.155Z,6.50
2022-10-11T04:02:54.987Z,7.07
2022-10-11T04:05:21.774Z,6.77
2022-10-11T04:07:48.445Z,6.87
2022-10-11T04:10:15.207Z,7.37
2022-10-11T04:12:42.917Z,7.23
2022-10-11T04:15:12.681Z,4.67
2022-10-11T04:17:39.798Z,6.97
2022-10-11T04:20:06.926Z,8.23
2022-10-11T04:22:33.667Z,4.97
2022-10-11T04:25:00.414Z,5.33
2022-10-11T04:27:27.821Z,4.57
2022-10-11T04:29:54.769Z,5.47
2022-10-11T04:32:21.611Z,3.60
2022-10-11T04:34:49.013Z,4.77
2022-10-11T04:37:15.695Z,4.47
2022-10-11T04:39:42.524Z,4.47
2022-10-11T04:42:09.140Z,5.53
2022-10-11T04:44:36.340Z,3.27
2022-10-11T04:47:03.118Z,5.07
2022-10-11T04:49:30.169Z,4.80
2022-10-11T04:51:56.805Z,5.23
2022-10-11T04:54:24.843Z,8.07
2022-10-11T04:56:51.484Z,3.83
2022-10-11T04:59:18.224Z,4.27
2022-10-11T05:01:45.179Z,4.73
2022-10-11T05:04:12.108Z,5.33
2022-10-11T05:06:38.864Z,7.17
2022-10-11T05:09:05.771Z,3.07
2022-10-11T05:11:32.551Z,4.17
2022-10-11T05:13:59.323Z,3.67
2022-10-11T05:19:10.569Z,7.30
2022-10-11T05:21:37.233Z,6.40
2022-10-11T05:24:04.043Z,6.37
2022-10-11T05:26:30.955Z,8.17
2022-10-11T05:28:58.590Z,3.10
2022-10-11T05:31:25.383Z,6.50
2022-10-11T05:33:52.251Z,6.27
2022-10-11T05:36:18.964Z,2.77
2022-10-11T05:38:45.747Z,4.23
2022-10-11T05:41:15.496Z,6.87
2022-10-11T05:43:42.273Z,7.87
2022-10-11T05:46:09.172Z,4.37
2022-10-11T05:48:36.153Z,8.93
2022-10-11T05:53:47.790Z,9.97
2022-10-11T05:56:21.698Z,14.07
2022-10-11T05:58:48.749Z,9.07
2022-10-11T06:01:24.918Z,8.60
2022-10-11T06:03:51.771Z,9.57
2022-10-11T06:06:18.506Z,7.03
2022-10-11T06:11:33.279Z,11.83
2022-10-11T06:13:59.985Z,10.27
2022-10-11T06:16:26.865Z,8.00
2022-10-11T06:18:57.154Z,9.67
2022-10-11T06:21:24.230Z,7.20
2022-10-11T06:23:51.277Z,9.00
2022-10-11T06:26:18.130Z,7.90
2022-10-11T06:28:44.943Z,7.93
2022-10-11T06:31:11.758Z,12.13
2022-10-11T06:33:38.674Z,11.27
2022-10-11T06:36:07.090Z,7.47
2022-10-11T06:38:34.447Z,8.43
2022-10-11T06:41:11.142Z,9.03
2022-10-11T06:43:37.954Z,10.57
2022-10-11T06:46:04.975Z,14.90
2022-10-11T06:48:31.868Z,10.33
2022-10-11T06:51:00.330Z,10.73
2022-10-11T06:53:27.668Z,7.53
2022-10-11T06:58:39.238Z,8.73
2022-10-11T07:01:07.058Z,7.70
2022-10-11T07:03:33.814Z,10.20
2022-10-11T07:06:02.676Z,12.03
2022-10-11T07:11:14.534Z,10.40
2022-10-11T07:16:25.991Z,9.37
2022-10-11T07:21:37.299Z,10.17
2022-10-11T07:26:48.452Z,8.47
2022-10-11T07:29:17.638Z,10.67
2022-10-11T07:31:44.456Z,11.37
2022-10-11T07:34:11.090Z,8.03
2022-10-11T07:36:37.860Z,8.47
2022-10-11T07:39:05.243Z,9.97
2022-10-11T07:41:31.963Z,8.80
2022-10-11T07:43:58.740Z,9.23
2022-10-11T07:46:25.537Z,9.07
2022-10-11T07:48:52.258Z,8.23
2022-10-11T07:51:19.944Z,10.07
2022-10-11T07:53:47.437Z,9.67
2022-10-11T07:56:15.157Z,7.83
2022-10-11T08:01:26.306Z,8.30
2022-10-11T08:03:53.233Z,7.03
2022-10-11T08:06:21.292Z,7.13
2022-10-11T08:08:47.928Z,10.93
2022-10-11T08:11:27.760Z,6.30
2022-10-11T08:13:54.577Z,6.73
2022-10-11T08:16:21.257Z,8.50
2022-10-11T08:18:48.052Z,7.87
2022-10-11T08:21:15.233Z,9.60
2022-10-11T08:23:42.417Z,8.73
2022-10-11T08:28:53.898Z,12.20
2022-10-11T08:34:05.355Z,7.60
2022-10-11T08:36:32.051Z,6.80
2022-10-11T08:38:59.000Z,9.20
2022-10-11T08:41:25.757Z,8.30
2022-10-11T08:43:56.136Z,5.37
2022-10-11T08:46:23.904Z,10.27
2022-10-11T08:48:50.605Z,5.90
2022-10-11T08:51:30.807Z,8.10
2022-10-11T08:53:58.110Z,8.63
2022-10-11T08:56:24.765Z,10.10
2022-10-11T08:59:09.780Z,13.23
2022-10-11T09:01:36.523Z,9.53
2022-10-11T09:04:04.192Z,8.80
2022-10-11T09:06:33.934Z,7.63
2022-10-11T09:09:16.266Z,9.40
2022-10-11T09:14:56.640Z,6.77
2022-10-11T09:17:36.659Z,8.17
2022-10-11T09:20:03.465Z,8.27
2022-10-11T09:22:30.958Z,8.13
2022-10-11T09:28:15.981Z,6.53
2022-10-11T09:33:39.142Z,6.47
2022-10-11T09:36:17.698Z,6.90
2022-10-11T09:38:55.406Z,6.47
2022-10-11T09:41:25.020Z,11.00
2022-10-11T09:43:52.543Z,7.90
2022-10-11T09:46:19.229Z,15.07
2022-10-11T09:48:46.055Z,11.60
2022-10-11T09:51:17.509Z,8.60
2022-10-11T09:54:00.369Z,10.10
2022-10-11T09:56:28.286Z,7.17
2022-10-11T10:02:06.256Z,10.07
2022-10-11T10:04:33.036Z,8.63
2022-10-11T10:07:09.768Z,7.23
2022-10-11T10:12:21.633Z,8.37
2022-10-11T10:15:05.963Z,8.03
2022-10-11T10:17:32.989Z,7.33
2022-10-11T10:20:00.637Z,7.57
2022-10-11T10:22:30.983Z,11.10
2022-10-11T10:24:58.486Z,9.17
2022-10-11T10:27:25.874Z,8.63
2022-10-11T10:30:04.915Z,7.87
2022-10-11T10:32:42.752Z,8.37
2022-10-11T10:38:01.651Z,6.13
2022-10-11T10:40:31.167Z,7.37
2022-10-11T10:42:58.528Z,7.47
2022-10-11T10:45:26.511Z,11.27
2022-10-11T10:47:57.785Z,7.73
2022-10-11T10:50:30.218Z,10.47
2022-10-11T10:55:57.642Z,8.33
2022-10-11T10:58:27.461Z,9.80
2022-10-11T11:00:56.354Z,9.30
2022-10-11T11:03:33.056Z,7.13
2022-10-11T11:06:04.268Z,10.50
2022-10-11T11:08:40.380Z,8.60
2022-10-11T11:11:33.775Z,8.63
2022-10-11T11:14:00.473Z,7.10
2022-10-11T11:16:35.209Z,6.67
2022-10-11T11:19:02.097Z,8.37
2022-10-11T11:21:32.062Z,3.53
2022-10-11T11:24:04.930Z,7.63
2022-10-11T11:26:44.180Z,9.90
2022-10-11T11:29:27.015Z,6.60
2022-10-11T11:32:02.994Z,6.00
2022-10-11T11:37:25.528Z,13.53
2022-10-11T11:42:45.532Z,10.53
2022-10-11T11:45:15.040Z,7.03
2022-10-11T11:47:42.090Z,6.70
2022-10-11T11:50:19.182Z,8.30
2022-10-11T11:52:46.504Z,5.70
2022-10-11T11:55:15.405Z,5.87
2022-10-11T11:58:07.218Z,7.33
2022-10-11T12:01:09.836Z,7.17
2022-10-11T12:03:44.188Z,7.90
2022-10-11T12:06:13.897Z,10.80
2022-10-11T12:08:44.483Z,7.50
2022-10-11T12:11:24.954Z,7.43
2022-10-11T12:13:54.724Z,6.93
2022-10-11T12:16:21.470Z,8.70
2022-10-11T12:18:48.242Z,7.83
2022-10-11T12:27:52.065Z,8.70
2022-10-11T12:30:37.251Z,9.10
2022-10-11T12:33:13.500Z,8.27
2022-10-11T12:35:42.682Z,9.07
2022-10-11T12:38:16.544Z,8.07
2022-10-11T12:40:43.790Z,10.17
2022-10-11T12:43:16.591Z,9.97
2022-10-11T12:45:47.931Z,5.90
2022-10-11T12:48:15.236Z,5.47
2022-10-11T12:50:44.856Z,8.73
2022-10-11T12:53:20.587Z,8.63
2022-10-11T12:55:50.329Z,6.90
2022-10-11T12:58:23.911Z,3.97
2022-10-11T13:00:50.765Z,8.07
2022-10-11T13:03:36.582Z,6.00
2022-10-11T13:06:10.398Z,5.10
2022-10-11T13:08:38.217Z,9.27
2022-10-11T13:11:05.604Z,5.47
2022-10-11T13:13:33.421Z,7.73
2022-10-11T13:16:01.447Z,8.90
2022-10-11T13:18:28.371Z,9.57
2022-10-11T13:20:55.598Z,9.57
2022-10-11T13:23:27.163Z,6.53
2022-10-11T13:25:54.429Z,7.37
2022-10-11T13:28:21.676Z,8.10
2022-10-11T13:30:50.512Z,11.17
2022-10-11T13:33:21.450Z,6.50
2022-10-11T13:35:49.577Z,16.50
2022-10-11T13:38:23.785Z,8.47
2022-10-11T13:40:51.308Z,10.13
2022-10-11T13:43:21.668Z,6.53
2022-10-11T13:45:48.395Z,9.63
2022-10-11T13:48:15.267Z,5.77
2022-10-11T13:50:46.324Z,12.10
2022-10-11T13:53:13.370Z,6.17
2022-10-11T13:55:43.033Z,7.00
2022-10-11T13:58:12.810Z,8.00
2022-10-11T14:00:44.435Z,10.97
2022-10-11T14:03:14.724Z,7.67
2022-10-11T14:05:42.316Z,6.20
2022-10-11T14:08:22.574Z,7.67
2022-10-11T14:10:51.749Z,8.30
2022-10-11T14:13:23.949Z,10.87
2022-10-11T14:16:06.968Z,5.43
2022-10-11T14:18:37.008Z,6.13
2022-10-11T14:21:21.961Z,11.00
2022-10-11T14:23:52.099Z,9.83
2022-10-11T14:26:19.133Z,8.97
2022-10-11T14:28:46.157Z,6.40
2022-10-11T14:31:12.858Z,9.93
2022-10-11T14:33:39.406Z,7.63
2022-10-11T14:36:06.276Z,10.03
2022-10-11T14:38:33.070Z,7.33
2022-10-11T14:40:59.737Z,6.37
2022-10-11T14:43:26.386Z,6.27
2022-10-11T14:45:55.545Z,9.60
2022-10-11T14:48:43.073Z,7.77
2022-10-11T14:51:12.319Z,6.20
2022-10-11T14:53:42.280Z,6.00
2022-10-11T14:56:09.121Z,7.00
2022-10-11T14:58:41.177Z,10.97
2022-10-11T15:01:10.521Z,11.43
2022-10-11T15:03:38.208Z,8.20
2022-10-11T15:06:06.718Z,11.13
2022-10-11T15:08:33.672Z,8.10
2022-10-11T15:11:00.426Z,10.97
2022-10-11T15:13:27.362Z,8.07
2022-10-11T15:15:54.005Z,7.60
2022-10-11T15:18:21.260Z,8.80
2022-10-11T15:20:49.196Z,11.37
2022-10-11T15:23:15.784Z,9.57
2022-10-11T15:25:43.039Z,8.03
2022-10-11T15:28:11.529Z,10.27
2022-10-11T15:30:41.441Z,12.67
2022-10-11T15:33:08.559Z,11.60
2022-10-11T15:35:35.237Z,12.07
2022-10-11T15:38:01.996Z,13.13
2022-10-11T15:40:33.430Z,13.53
2022-10-11T15:43:00.089Z,12.13
2022-10-11T15:45:26.725Z,18.30
2022-10-11T15:47:55.073Z,17.07
2022-10-11T15:50:34.743Z,13.60
2022-10-11T15:53:05.494Z,12.50
2022-10-11T15:55:32.428Z,15.23
2022-10-11T15:57:59.089Z,16.47
2022-10-11T16:00:25.954Z,12.50
2022-10-11T16:02:53.216Z,12.80
2022-10-11T16:05:25.284Z,9.90
2022-10-11T16:07:52.344Z,10.40
2022-10-11T16:10:19.133Z,12.30
2022-10-11T16:12:46.180Z,11.83
2022-10-11T16:15:13.011Z,10.20
2022-10-11T16:17:39.978Z,12.70
2022-10-11T16:20:08.455Z,13.17
2022-10-11T16:22:36.400Z,12.23
2022-10-11T16:25:04.326Z,9.43
2022-10-11T16:27:31.548Z,11.33
2022-10-11T16:29:58.574Z,12.10
2022-10-11T16:32:27.988Z,11.90
2022-10-11T16:34:54.993Z,12.63
2022-10-11T16:37:22.184Z,15.20
2022-10-11T16:39:48.980Z,14.93
2022-10-11T16:42:17.538Z,16.00
2022-10-11T16:44:44.442Z,11.63
2022-10-11T16:47:11.416Z,14.50
2022-10-11T16:49:38.651Z,9.43
2022-10-11T16:52:05.704Z,10.90
2022-10-11T16:54:32.768Z,15.07
2022-10-11T16:57:01.356Z,13.17
2022-10-11T16:59:28.210Z,15.53
2022-10-11T17:01:55.349Z,18.17
2022-10-11T17:04:22.226Z,16.50
2022-10-11T17:06:48.928Z,19.07
2022-10-11T17:09:16.075Z,18.20
2022-10-11T17:11:43.037Z,14.30
2022-10-11T17:14:10.684Z,14.67
2022-10-11T17:16:37.316Z,10.97
2022-10-11T17:19:04.278Z,14.83
2022-10-11T17:21:31.982Z,11.90
2022-10-11T17:23:58.720Z,12.63
2022-10-11T17:26:26.394Z,14.33
2022-10-11T17:28:56.790Z,13.20
2022-10-11T17:31:23.818Z,11.27
2022-10-11T17:33:50.508Z,18.73
2022-10-11T17:36:20.209Z,18.77
2022-10-11T17:38:47.329Z,17.80
2022-10-11T17:41:14.189Z,15.20
2022-10-11T17:43:40.932Z,18.83
2022-10-11T17:46:09.058Z,16.03
2022-10-11T17:48:36.865Z,12.90
2022-10-11T17:51:08.448Z,23.40
2022-10-11T17:53:35.398Z,17.03
2022-10-11T17:56:07.295Z,16.33
2022-10-11T17:58:35.112Z,14.87
2022-10-11T18:01:04.289Z,15.40
2022-10-11T18:03:32.596Z,15.13
2022-10-11T18:05:59.356Z,13.20
2022-10-11T18:08:34.292Z,12.17
2022-10-11T18:11:03.647Z,12.27
2022-10-11T18:13:30.683Z,15.70
2022-10-11T18:15:57.389Z,17.60
2022-10-11T18:18:24.324Z,13.57
2022-10-11T18:20:51.405Z,17.83
2022-10-11T18:23:18.526Z,14.73
2022-10-11T18:25:45.728Z,14.30
2022-10-11T18:28:12.478Z,14.90
2022-10-11T18:30:43.711Z,14.47
2022-10-11T18:33:10.817Z,20.73
2022-10-11T18:35:37.684Z,17.90
2022-10-11T18:38:06.107Z,15.30
2022-10-11T18:40:33.077Z,12.50
2022-10-11T18:42:59.889Z,16.97
2022-10-11T18:45:26.507Z,15.47
2022-10-11T18:47:53.254Z,15.13
2022-10-11T18:50:21.012Z,18.70
2022-10-11T18:52:48.648Z,17.70
2022-10-11T18:55:18.289Z,17.20
2022-10-11T18:57:44.969Z,15.87
2022-10-11T19:00:29.652Z,12.50
2022-10-11T19:02:59.875Z,14.53
2022-10-11T19:05:27.770Z,17.73
2022-10-11T19:07:54.571Z,15.53
2022-10-11T19:10:21.367Z,14.53
2022-10-11T19:12:48.323Z,14.57
2022-10-11T19:15:16.614Z,16.03
2022-10-11T19:17:46.270Z,15.77
2022-10-11T19:20:13.957Z,16.83
2022-10-11T19:22:40.581Z,12.83
2022-10-11T19:25:07.440Z,12.30
2022-10-11T19:27:33.995Z,17.30
2022-10-11T19:30:01.619Z,17.47
2022-10-11T19:32:28.629Z,25.73
2022-10-11T19:34:56.402Z,19.60
2022-10-11T19:37:23.109Z,17.53
2022-10-11T19:39:49.874Z,14.97
2022-10-11T19:42:16.613Z,14.90
2022-10-11T19:44:44.374Z,17.97
2022-10-11T19:47:11.086Z,17.30
2022-10-11T19:49:38.965Z,13.10
2022-10-11T19:52:05.797Z,11.13
2022-10-11T19:54:33.781Z,18.00
2022-10-11T19:57:00.384Z,12.17
2022-10-11T19:59:29.493Z,10.13
2022-10-11T20:01:57.776Z,14.13
2022-10-11T20:04:50.969Z,13.37
2022-10-11T20:07:11.623Z,11.63
2022-10-11T20:09:38.154Z,15.73
2022-10-11T20:12:05.085Z,10.90
2022-10-11T20:14:34.528Z,16.20
2022-10-11T20:17:01.627Z,17.03
2022-10-11T20:19:31.400Z,13.70
2022-10-11T20:21:58.536Z,15.90
2022-10-11T20:24:27.471Z,16.70
2022-10-11T20:26:54.494Z,11.30
2022-10-11T20:29:21.391Z,13.33
2022-10-11T20:31:48.991Z,16.93
2022-10-11T20:34:15.510Z,14.73
2022-10-11T20:36:44.668Z,12.47
2022-10-11T20:39:14.850Z,15.07
2022-10-11T20:41:42.742Z,15.77
2022-10-11T20:44:09.855Z,15.80
2022-10-11T20:46:37.352Z,17.33
2022-10-11T20:49:04.721Z,16.17
2022-10-11T20:51:31.560Z,18.33
2022-10-11T20:53:58.579Z,17.33
2022-10-11T20:56:25.167Z,14.30
2022-10-11T20:58:54.705Z,15.03
2022-10-11T21:01:22.619Z,12.97
2022-10-11T21:03:49.457Z,13.87
2022-10-11T21:06:16.050Z,11.57
2022-10-11T21:08:42.602Z,14.43
2022-10-11T21:11:09.250Z,16.17
2022-10-11T21:13:37.259Z,15.33
2022-10-11T21:16:06.913Z,13.37
2022-10-11T21:18:33.775Z,13.20
2022-10-11T21:21:10.671Z,11.83
2022-10-11T21:23:37.509Z,13.57
2022-10-11T21:26:04.808Z,9.00
2022-10-11T21:28:31.603Z,13.00
2022-10-11T21:31:11.248Z,10.00
2022-10-11T21:33:37.943Z,14.43
2022-10-11T21:36:05.183Z,18.10
2022-10-11T21:38:31.744Z,16.27
2022-10-11T21:40:58.434Z,12.73
2022-10-11T21:43:25.537Z,8.50
2022-10-11T21:45:52.624Z,9.87
2022-10-11T21:48:19.216Z,12.17
2022-10-11T21:50:55.902Z,12.07
2022-10-11T21:53:22.589Z,14.13
2022-10-11T21:55:49.117Z,8.97
2022-10-11T21:58:15.717Z,15.83
2022-10-11T22:00:42.243Z,8.40
2022-10-11T22:03:08.866Z,13.03
2022-10-11T22:05:35.565Z,11.27
2022-10-11T22:08:02.137Z,11.17
2022-10-11T22:10:28.688Z,11.63
2022-10-11T22:12:55.289Z,9.10
2022-10-11T22:15:21.804Z,11.17
2022-10-11T22:17:48.476Z,11.97
2022-10-11T22:20:15.228Z,14.63
2022-10-11T22:22:41.985Z,10.80
2022-10-11T22:25:08.873Z,10.93
2022-10-11T22:27:35.585Z,10.03
2022-10-11T22:30:02.282Z,11.70
2022-10-11T22:32:28.954Z,7.03
2022-10-11T22:34:55.579Z,9.40
2022-10-11T22:37:22.138Z,8.37
2022-10-11T22:39:48.650Z,10.47
2022-10-11T22:42:15.331Z,7.90
2022-10-11T22:44:42.055Z,13.73
2022-10-11T22:47:08.797Z,9.23
2022-10-11T22:49:35.434Z,10.43
2022-10-11T22:52:02.065Z,11.07
2022-10-11T22:54:28.605Z,9.83
2022-10-11T22:56:55.177Z,12.00
2022-10-11T22:59:22.110Z,8.27
2022-10-11T23:01:48.726Z,8.97
2022-10-11T23:04:17.865Z,11.60
2022-10-11T23:06:44.440Z,9.83
2022-10-11T23:09:10.961Z,7.23
2022-10-11T23:11:37.676Z,9.93
2022-10-11T23:14:04.351Z,13.23
2022-10-11T23:16:30.857Z,9.40
2022-10-11T23:18:57.560Z,8.57
2022-10-11T23:21:24.315Z,8.60
2022-10-11T23:23:54.037Z,10.53
2022-10-11T23:26:20.717Z,6.13
2022-10-11T23:28:47.301Z,8.63
2022-10-11T23:31:14.800Z,11.33
2022-10-11T23:33:41.405Z,10.87
2022-10-11T23:36:17.552Z,9.00
2022-10-11T23:38:44.423Z,10.43
2022-10-11T23:41:11.279Z,7.90
2022-10-11T23:43:37.916Z,8.70
2022-10-11T23:46:04.574Z,6.37
2022-10-11T23:48:31.192Z,9.83
2022-10-11T23:50:57.703Z,6.67
2022-10-11T23:53:24.405Z,11.07
2022-10-11T23:55:51.198Z,10.53
2022-10-11T23:58:17.764Z,10.30
